Time;durP1;ratioP1;P1;durP2;ratioP2;P2;SDS_P1;SDS_P2;PMS_P1;PMS_P2;Temp;Humidity;BMP_temperature;BMP_pressure;BME280_temperature;BME280_humidity;BME280_pressure;Samples;Min_cycle;Max_cycle;Signal;HPM_P1;HPM_P2
2021/01/09 00:06:32;;;;;;;33.9;25.9;;;;;;;-0.27;77.28125;98663.91;;;;
2021/01/09 00:16:30;;;;;;;31.2;27.8;;;;;;;-0.22;77.02734;98671.96;;;;
2021/01/09 00:26:28;;;;;;;48.6;31;;;;;;;-0.25;77.19629;98675.08;;;;
2021/01/09 00:36:25;;;;;;;34.4;26.6;;;;;;;-0.23;77.03516;98675.64;;;;
2021/01/09 00:46:23;;;;;;;33.8;22.3;;;;;;;-0.16;76.58594;98681.61;;;;
2021/01/09 00:56:21;;;;;;;22.5;18.7;;;;;;;-0.11;76.03418;98691.5;;;;
2021/01/09 01:06:19;;;;;;;18.5;14.4;;;;;;;-0.28;76.14648;98691.45;;;;
2021/01/09 01:16:17;;;;;;;17.6;12.8;;;;;;;-0.59;76.47559;98675.98;;;;
2021/01/09 01:26:14;;;;;;;18.8;12.8;;;;;;;-0.91;76.87793;98682.69;;;;
2021/01/09 01:36:12;;;;;;;15.7;11.1;;;;;;;-1.26;77.77051;98686.14;;;;
2021/01/09 01:46:10;;;;;;;20.2;12.1;;;;;;;-1.53;78.52246;98685.73;;;;
2021/01/09 01:56:08;;;;;;;16.8;12;;;;;;;-1.7;80.47168;98684;;;;
2021/01/09 02:06:05;;;;;;;20.5;13;;;;;;;-1.74;80.93555;98688.13;;;;
2021/01/09 02:16:03;;;;;;;14.8;10.8;;;;;;;-1.73;80.79492;98695;;;;
2021/01/09 02:26:01;;;;;;;17.9;12.2;;;;;;;-1.6;80.66602;98692.18;;;;
2021/01/09 02:35:58;;;;;;;17.2;11.8;;;;;;;-1.55;80.34766;98700.22;;;;
2021/01/09 02:45:56;;;;;;;21.8;13.6;;;;;;;-1.5;80.5;98699.55;;;;
2021/01/09 02:55:54;;;;;;;16.3;10.6;;;;;;;-1.35;80.87793;98705.19;;;;
2021/01/09 03:05:51;;;;;;;17.5;11.4;;;;;;;-1.17;81.25488;98700.62;;;;
2021/01/09 03:15:49;;;;;;;17.2;10.1;;;;;;;-1.1;81.96875;98703.95;;;;
2021/01/09 03:25:47;;;;;;;12.6;7.6;;;;;;;-1.01;81.89941;98707.86;;;;
2021/01/09 03:35:45;;;;;;;17.7;9.5;;;;;;;-0.98;81.5957;98708.45;;;;
2021/01/09 03:45:42;;;;;;;13.8;8.1;;;;;;;-1.09;81.13672;98717.99;;;;
2021/01/09 03:55:40;;;;;;;15.9;10.8;;;;;;;-1.32;81.25879;98716.11;;;;
2021/01/09 04:05:38;;;;;;;15.6;10.3;;;;;;;-1.38;81.21387;98714.38;;;;
2021/01/09 04:15:35;;;;;;;15;10.6;;;;;;;-1.35;81.85449;98721.85;;;;
2021/01/09 04:25:34;;;;;;;13;9.8;;;;;;;-1.19;81.38086;98715.92;;;;
2021/01/09 04:35:31;;;;;;;17.3;11.5;;;;;;;-1.1;81.19043;98722.47;;;;
2021/01/09 04:45:29;;;;;;;18.1;11.4;;;;;;;-0.94;80.80176;98725.48;;;;
2021/01/09 04:55:30;;;;;;;19.1;10.8;;;;;;;-0.83;80.62695;98729.97;;;;
2021/01/09 05:05:24;;;;;;;18.2;14.4;;;;;;;-0.78;80.42676;98745.94;;;;
2021/01/09 05:15:22;;;;;;;14.6;11.9;;;;;;;-0.68;79.72266;98741.69;;;;
2021/01/09 05:25:20;;;;;;;18;13.6;;;;;;;-0.62;79.28223;98745.23;;;;
2021/01/09 05:35:17;;;;;;;17.1;11.6;;;;;;;-0.58;78.62012;98756.97;;;;
2021/01/09 05:45:15;;;;;;;16;12;;;;;;;-0.8;78.64453;98774.48;;;;
2021/01/09 05:55:13;;;;;;;17.4;12.5;;;;;;;-0.94;78.98047;98775.73;;;;
2021/01/09 06:05:10;;;;;;;14.1;9.7;;;;;;;-0.96;78.74805;98789.17;;;;
2021/01/09 06:15:08;;;;;;;16;10.1;;;;;;;-0.95;78.80371;98797.92;;;;
2021/01/09 06:25:06;;;;;;;19.1;11.2;;;;;;;-0.93;78.70996;98801.95;;;;
2021/01/09 06:35:04;;;;;;;20.9;13.4;;;;;;;-0.82;78.5752;98821.52;;;;
2021/01/09 06:45:02;;;;;;;17.8;11.6;;;;;;;-0.85;78.68066;98833.37;;;;
2021/01/09 06:54:59;;;;;;;18.2;12.4;;;;;;;-0.9;78.97949;98854.39;;;;
2021/01/09 07:04:57;;;;;;;20.1;15.4;;;;;;;-0.83;79.30957;98852.45;;;;
2021/01/09 07:14:54;;;;;;;19.2;15.2;;;;;;;-0.68;79.3252;98867.9;;;;
2021/01/09 07:24:52;;;;;;;17.7;15.9;;;;;;;-0.52;78.68652;98873.32;;;;
2021/01/09 07:34:50;;;;;;;22.3;16.3;;;;;;;-0.37;78.12109;98896.7;;;;
2021/01/09 07:44:48;;;;;;;19.9;14;;;;;;;-0.19;77.12012;98903.74;;;;
2021/01/09 07:54:47;;;;;;;20.9;16.4;;;;;;;-0.14;77.29297;98906.52;;;;
2021/01/09 08:04:43;;;;;;;22;17.7;;;;;;;-0.06;76.74609;98919.4;;;;
2021/01/09 08:14:41;;;;;;;28.6;21.2;;;;;;;0.2;76.33008;98923.43;;;;
2021/01/09 08:24:39;;;;;;;37.4;25;;;;;;;0.47;75.36621;98917.39;;;;
2021/01/09 08:34:36;;;;;;;28.1;24;;;;;;;0.73;75.125;98928.52;;;;
2021/01/09 08:44:34;;;;;;;31.2;22;;;;;;;0.84;74.95605;98933.77;;;;
2021/01/09 08:54:32;;;;;;;28.6;19.5;;;;;;;0.97;74.83398;98943.31;;;;
2021/01/09 09:04:30;;;;;;;29.4;23.2;;;;;;;1.12;74.50781;98945.42;;;;
2021/01/09 09:14:29;;;;;;;31.7;23.8;;;;;;;1.08;75.04297;98942.44;;;;
2021/01/09 09:24:43;;;;;;;27.7;19.9;;;;;;;0.95;75.23926;98926.8;;;;
2021/01/09 09:34:24;;;;;;;37.6;25.9;;;;;;;1.17;75.25586;98918.98;;;;
2021/01/09 09:44:22;;;;;;;28.7;20.6;;;;;;;1.27;74.84375;98919.16;;;;
2021/01/09 09:54:20;;;;;;;20.5;17.8;;;;;;;1.05;74.53906;98913.72;;;;
2021/01/09 10:04:18;;;;;;;23.1;17.9;;;;;;;1.26;74.31152;98917.55;;;;
2021/01/09 10:14:16;;;;;;;27.9;21;;;;;;;1.42;73.94043;98908.81;;;;
2021/01/09 10:24:14;;;;;;;23.7;19.9;;;;;;;1.65;72.6084;98907.84;;;;
2021/01/09 10:34:12;;;;;;;24.8;16.6;;;;;;;1.61;71.5166;98904.05;;;;
2021/01/09 10:44:10;;;;;;;37.6;22.3;;;;;;;1.71;70.82617;98897.05;;;;
2021/01/09 10:54:08;;;;;;;19.4;13;;;;;;;1.78;69.75293;98903;;;;
2021/01/09 11:04:06;;;;;;;17.5;14.4;;;;;;;1.9;70.02734;98906.39;;;;
2021/01/09 11:14:04;;;;;;;23.6;16.5;;;;;;;1.99;69.06738;98907.58;;;;
2021/01/09 11:24:02;;;;;;;20.9;16;;;;;;;2;68.18164;98911.85;;;;
2021/01/09 11:34:00;;;;;;;21.3;17.1;;;;;;;1.92;68.74414;98914.1;;;;
2021/01/09 11:43:58;;;;;;;28.1;20.8;;;;;;;1.91;69.85156;98915.14;;;;
2021/01/09 11:53:56;;;;;;;28;21.9;;;;;;;1.74;70.6543;98909.84;;;;
2021/01/09 12:03:54;;;;;;;26.4;20.4;;;;;;;1.67;70.34277;98916.36;;;;
2021/01/09 12:13:52;;;;;;;27.6;23.4;;;;;;;1.42;72.07324;98917.56;;;;
2021/01/09 12:23:50;;;;;;;26.3;21.3;;;;;;;1.45;71.85645;98918.95;;;;
2021/01/09 12:33:48;;;;;;;28.6;21.4;;;;;;;1.54;72.63574;98917.5;;;;
2021/01/09 12:43:46;;;;;;;30.4;24.1;;;;;;;1.51;73.22852;98921.45;;;;
2021/01/09 12:53:44;;;;;;;35.5;25.4;;;;;;;1.43;72.67285;98929.8;;;;
2021/01/09 13:03:42;;;;;;;39.7;27.6;;;;;;;1.46;72.87695;98937.28;;;;
2021/01/09 13:13:40;;;;;;;31.2;25.1;;;;;;;1.21;73.7832;98936.05;;;;
2021/01/09 13:23:38;;;;;;;41.7;31;;;;;;;1.21;74.34668;98949.33;;;;
2021/01/09 13:33:35;;;;;;;33;27;;;;;;;0.99;75.04883;98957.14;;;;
2021/01/09 13:43:33;;;;;;;30.7;26;;;;;;;0.92;75.29004;98972.39;;;;
2021/01/09 13:53:31;;;;;;;34.2;25.7;;;;;;;0.72;76.03906;98994.02;;;;
2021/01/09 14:03:29;;;;;;;34.2;24.3;;;;;;;0.37;77.63867;98987.95;;;;
2021/01/09 14:13:29;;;;;;;42.4;25.7;;;;;;;0.36;77.74707;99007.53;;;;
2021/01/09 14:23:25;;;;;;;41.9;30.1;;;;;;;0.39;78.78906;99018.48;;;;
2021/01/09 14:33:23;;;;;;;43.3;31.5;;;;;;;0.29;79.14355;99020.09;;;;
2021/01/09 14:43:20;;;;;;;47.1;40.6;;;;;;;0.24;79.50879;99023.46;;;;
2021/01/09 14:53:18;;;;;;;61.9;45.3;;;;;;;0.12;79.96973;99043.02;;;;
2021/01/09 15:03:16;;;;;;;46.4;34.6;;;;;;;0.03;80.38184;99045.21;;;;
2021/01/09 15:13:14;;;;;;;48.7;38.4;;;;;;;0.02;80.62207;99058.67;;;;
2021/01/09 15:23:11;;;;;;;56.9;41.3;;;;;;;0.06;80.94824;99073.09;;;;
2021/01/09 15:33:09;;;;;;;70.8;43.6;;;;;;;0.06;81.05762;99081.03;;;;
2021/01/09 15:43:07;;;;;;;79;55.6;;;;;;;0.05;81.19922;99095.31;;;;
2021/01/09 15:53:04;;;;;;;54.6;39.6;;;;;;;0.1;80.89063;99098.91;;;;
2021/01/09 16:03:02;;;;;;;69.3;56.2;;;;;;;-0.05;81.69922;99101.98;;;;
2021/01/09 16:13:00;;;;;;;83.1;55.3;;;;;;;-0.07;81.28711;99116.49;;;;
2021/01/09 16:22:58;;;;;;;56.2;46.5;;;;;;;-0.15;81.16309;99120.27;;;;
2021/01/09 16:32:55;;;;;;;60.4;45.1;;;;;;;-0.29;80.35449;99104.77;;;;
2021/01/09 16:42:53;;;;;;;59.3;43.1;;;;;;;-0.44;80.58008;99115.75;;;;
2021/01/09 16:52:51;;;;;;;58;42.1;;;;;;;-0.54;80.52832;99111;;;;
2021/01/09 17:02:48;;;;;;;49.9;36.7;;;;;;;-0.56;80.69922;99128.14;;;;
2021/01/09 17:12:46;;;;;;;52.2;35.9;;;;;;;-0.69;80.68652;99128.27;;;;
2021/01/09 17:22:44;;;;;;;48.6;39;;;;;;;-0.8;80.99414;99129.04;;;;
2021/01/09 17:32:41;;;;;;;49;35.8;;;;;;;-1.03;81.1709;99135.78;;;;
2021/01/09 17:42:39;;;;;;;54.5;35.3;;;;;;;-1.28;81.4502;99134.19;;;;
2021/01/09 17:52:37;;;;;;;55.3;39.5;;;;;;;-1.4;81.52637;99146.52;;;;
2021/01/09 18:02:34;;;;;;;57.9;39.9;;;;;;;-1.41;82.35742;99143.06;;;;
2021/01/09 18:12:32;;;;;;;52.8;40.6;;;;;;;-1.31;82.86914;99150.48;;;;
2021/01/09 18:22:29;;;;;;;59.6;41.4;;;;;;;-1.2;83.12207;99155.89;;;;
2021/01/09 18:32:29;;;;;;;75.8;54.5;;;;;;;-1.1;83.89746;99156.19;;;;
2021/01/09 18:42:25;;;;;;;77.3;48.4;;;;;;;-1.02;84.02246;99153.28;;;;
2021/01/09 18:52:22;;;;;;;71.9;49.7;;;;;;;-0.93;83.80762;99158.27;;;;
2021/01/09 19:02:20;;;;;;;71.7;49.7;;;;;;;-0.82;83.36133;99150.41;;;;
2021/01/09 19:12:18;;;;;;;59.3;47.1;;;;;;;-0.73;83.01465;99161.53;;;;
2021/01/09 19:22:15;;;;;;;73.4;49.8;;;;;;;-0.62;82.82715;99171.36;;;;
2021/01/09 19:32:13;;;;;;;86.5;59.8;;;;;;;-0.52;82.09082;99177.75;;;;
2021/01/09 19:42:11;;;;;;;65.1;52.2;;;;;;;-0.46;81.97168;99184.02;;;;
2021/01/09 19:52:08;;;;;;;72;47.4;;;;;;;-0.37;81.64648;99181.86;;;;
2021/01/09 20:02:06;;;;;;;88.2;57.7;;;;;;;-0.3;81.41992;99191.35;;;;
2021/01/09 20:12:04;;;;;;;88;57.8;;;;;;;-0.28;81.26953;99197.25;;;;
2021/01/09 20:22:02;;;;;;;74.6;58.8;;;;;;;-0.27;81.62305;99205.98;;;;
2021/01/09 20:31:59;;;;;;;92.5;68.9;;;;;;;-0.31;82.64648;99210.91;;;;
2021/01/09 20:41:57;;;;;;;81.6;63.8;;;;;;;-0.28;82.43262;99212.33;;;;
2021/01/09 20:51:55;;;;;;;80.4;57.4;;;;;;;-0.34;82.53223;99221.95;;;;
2021/01/09 21:01:53;;;;;;;75.9;64.6;;;;;;;-0.33;82.33594;99234.17;;;;
2021/01/09 21:11:52;;;;;;;66.4;50.5;;;;;;;-0.29;82.13379;99231.89;;;;
2021/01/09 21:21:48;;;;;;;56;45.6;;;;;;;-0.26;81.33887;99248.14;;;;
2021/01/09 21:31:46;;;;;;;65.2;48;;;;;;;-0.28;80.91602;99238.81;;;;
2021/01/09 21:41:44;;;;;;;65.6;47.4;;;;;;;-0.29;81.27734;99247.78;;;;
2021/01/09 21:51:41;;;;;;;60.7;42.6;;;;;;;-0.35;80.38867;99249.48;;;;
2021/01/09 22:01:40;;;;;;;58.6;44.1;;;;;;;-0.37;80.03125;99245.41;;;;
2021/01/09 22:11:37;;;;;;;56.4;41.4;;;;;;;-0.42;78.73828;99243.45;;;;
2021/01/09 22:21:36;;;;;;;50.1;37.1;;;;;;;-0.44;78.38281;99250.78;;;;
2021/01/09 22:31:40;;;;;;;54.7;36.2;;;;;;;-0.43;78.58008;99251.59;;;;
2021/01/09 22:41:30;;;;;;;56.9;39.9;;;;;;;-0.4;78.48828;99251.16;;;;
2021/01/09 22:51:30;;;;;;;73.8;50.7;;;;;;;-0.46;78.98438;99252.86;;;;
2021/01/09 23:01:26;;;;;;;55.5;41;;;;;;;-0.41;78.47363;99257.47;;;;
2021/01/09 23:11:24;;;;;;;45.9;38.8;;;;;;;-0.42;78.33105;99254.04;;;;
2021/01/09 23:21:21;;;;;;;49.9;36.9;;;;;;;-0.46;78.22559;99252.86;;;;
2021/01/09 23:31:19;;;;;;;67.6;44.9;;;;;;;-0.51;78.5127;99247.4;;;;
2021/01/09 23:41:17;;;;;;;64.2;45.6;;;;;;;-0.48;77.43066;99257.55;;;;
2021/01/09 23:51:15;;;;;;;53.5;33.9;;;;;;;-0.44;77.33691;99249.97;;;;
